Apalachicola, FL (32320)

6:53 AM EST on February 13, 2016 (GMT -0500)
Seafood Workers Task Force Apalachicola Office | | Change Station
CLOSE
Current Station
Personal Weather Station
Location: Apalachicola, FL
Elevation: 43 ft
Nearby Weather Stations
Active Advisory: Flood Warning

Elev 43 ft 29.73 °N, 85.00 °W | Updated 9 minutes ago

Clear
Clear
49.1 °F
Feels Like 49 °F
N
2.7
Wind Variable Wind from NNE

Today
High -- | Low -- °F
--% Chance of Precip.
Yesterday
High -- | Low -- °F
Precip. -- in
Pressure 30.24 in
Visibility 10.0 miles
Clouds Clear
Windchill 49 °F
Dew Point 39 °F
Humidity 67%
Rainfall 0.00 in
Snow Depth Not available.
7:21 AM 6:27 PM
Waxing Crescent, 30% visible
METAR KAAF 131053Z AUTO 35008KT 10SM CLR 10/04 A3024 RMK AO2 SLP240 T01000039
Pressure 30.24 in
Visibility 10.0 miles
Clouds Clear
Windchill 49 °F
Dew Point 39 °F
Humidity 67%
Rainfall 0.00 in
Snow Depth Not available.
7:21 AM 6:27 PM
Waxing Crescent, 30% visible
METAR KAAF 131053Z AUTO 35008KT 10SM CLR 10/04 A3024 RMK AO2 SLP240 T01000039

10-Day Weather Forecast

Almanac

Astronomy

Feb. 13, 2016 Rise Set
Actual Time
Civil Twilight
Nautical Twilight
Astronomical Twilight
Moon
Length of Visible Light
Length of Day
Tomorrow will be .
, % of the Moon is Illuminated

Today's Extremes

State Highs State Lows

Community

WunderPhotos

Upload Photos

1,892,541 photos uploaded!

WunderBlog® & News

Nearby

Air Quality

  Air Quality AQ Index Pollutant
Not available.

Snow Depth

Station Depth Elevation

Earthquake Activity

City Distance Mag. Time & Date
Minimum magnitude displayed is 2.5.

Coastal Water Temperatures

Place Temperature

Stations

Nearby Weather Stations

Station Location Temp. Windchill Dew Point Humidity Wind Precip. Elev Updated Type
                   

Watches & Warnings

Flood Warning
Issued: 6:59 PM CST Feb. 12, 2016 – National Weather Service

... Flood Warning extended until Sunday evening... the Flood Warning
continues for
the Apalachicola River near Blountstown.
* Until Sunday evening.
* At 6:15 PM Friday the stage was 16.3 feet.
* Minor flooding is occurring and minor flooding is forecast.
* Flood stage is 15.0 feet.
* Forecast: the river will continue to fall to below flood stage by
Sunday early afternoon.
* Impact: at 15.0 feet: minor lowland flooding begins. This level is
the top of the bank at the Marina.


Lat... Lon 3061 8498 3007 8520 2972 8505 2980 8490 3009 8508 3061 8490